sensor_id;sensor_type;location;lat;lon;timestamp;pressure;altitude;pressure_sealevel;temperature;humidity
26807;BME280;14380;49.910;6.792;2023-01-09T00:01:13;96899.00;;;7.65;100.00
26807;BME280;14380;49.910;6.792;2023-01-09T00:03:41;96896.81;;;7.59;100.00
26807;BME280;14380;49.910;6.792;2023-01-09T00:06:08;96893.09;;;7.62;100.00
26807;BME280;14380;49.910;6.792;2023-01-09T00:08:34;96896.28;;;7.78;100.00
26807;BME280;14380;49.910;6.792;2023-01-09T00:11:01;96901.25;;;7.70;100.00
26807;BME280;14380;49.910;6.792;2023-01-09T00:13:27;96898.13;;;7.65;100.00
26807;BME280;14380;49.910;6.792;2023-01-09T00:15:54;96898.25;;;7.63;100.00
26807;BME280;14380;49.910;6.792;2023-01-09T00:18:20;96898.13;;;7.65;100.00
26807;BME280;14380;49.910;6.792;2023-01-09T00:20:48;96888.69;;;7.62;100.00
26807;BME280;14380;49.910;6.792;2023-01-09T00:23:14;96891.50;;;7.48;100.00
26807;BME280;14380;49.910;6.792;2023-01-09T00:25:41;96890.69;;;7.58;100.00
26807;BME280;14380;49.910;6.792;2023-01-09T00:28:07;96891.41;;;7.49;100.00
26807;BME280;14380;49.910;6.792;2023-01-09T00:30:34;96892.06;;;7.64;100.00
26807;BME280;14380;49.910;6.792;2023-01-09T00:33:00;96888.69;;;7.62;100.00
26807;BME280;14380;49.910;6.792;2023-01-09T00:35:27;96890.66;;;7.71;100.00
26807;BME280;14380;49.910;6.792;2023-01-09T00:37:55;96887.69;;;7.76;100.00
26807;BME280;14380;49.910;6.792;2023-01-09T00:40:22;96881.34;;;7.79;100.00
26807;BME280;14380;49.910;6.792;2023-01-09T00:42:51;96884.44;;;7.72;100.00
26807;BME280;14380;49.910;6.792;2023-01-09T00:45:22;96884.69;;;7.69;100.00
26807;BME280;14380;49.910;6.792;2023-01-09T00:47:54;96881.31;;;7.67;100.00
26807;BME280;14380;49.910;6.792;2023-01-09T00:50:26;96882.38;;;7.65;100.00
26807;BME280;14380;49.910;6.792;2023-01-09T00:52:56;96878.72;;;7.79;100.00
26807;BME280;14380;49.910;6.792;2023-01-09T00:55:25;96865.97;;;7.85;100.00
26807;BME280;14380;49.910;6.792;2023-01-09T00:57:52;96875.84;;;7.70;100.00
26807;BME280;14380;49.910;6.792;2023-01-09T01:00:19;96877.47;;;7.60;100.00
26807;BME280;14380;49.910;6.792;2023-01-09T01:02:45;96877.91;;;7.78;100.00
26807;BME280;14380;49.910;6.792;2023-01-09T01:05:12;96885.50;;;7.70;100.00
26807;BME280;14380;49.910;6.792;2023-01-09T01:07:57;96885.41;;;7.71;100.00
26807;BME280;14380;49.910;6.792;2023-01-09T01:10:26;96887.31;;;7.69;100.00
26807;BME280;14380;49.910;6.792;2023-01-09T01:12:53;96894.13;;;7.48;100.00
26807;BME280;14380;49.910;6.792;2023-01-09T01:15:19;96888.72;;;7.73;100.00
26807;BME280;14380;49.910;6.792;2023-01-09T01:17:46;96894.59;;;7.77;100.00
26807;BME280;14380;49.910;6.792;2023-01-09T01:20:15;96886.69;;;7.66;100.00
26807;BME280;14380;49.910;6.792;2023-01-09T01:22:42;96893.53;;;7.80;100.00
26807;BME280;14380;49.910;6.792;2023-01-09T01:25:11;96890.75;;;7.70;100.00
26807;BME280;14380;49.910;6.792;2023-01-09T01:27:37;96897.84;;;7.81;100.00
26807;BME280;14380;49.910;6.792;2023-01-09T01:30:05;96897.75;;;7.58;100.00
26807;BME280;14380;49.910;6.792;2023-01-09T01:32:32;96902.41;;;7.90;100.00
26807;BME280;14380;49.910;6.792;2023-01-09T01:34:58;96887.00;;;7.85;100.00
26807;BME280;14380;49.910;6.792;2023-01-09T01:37:25;96892.81;;;7.78;100.00
26807;BME280;14380;49.910;6.792;2023-01-09T01:39:52;96892.44;;;7.71;100.00
26807;BME280;14380;49.910;6.792;2023-01-09T01:42:20;96888.84;;;7.72;100.00
26807;BME280;14380;49.910;6.792;2023-01-09T01:44:57;96891.28;;;7.51;100.00
26807;BME280;14380;49.910;6.792;2023-01-09T01:47:40;96903.50;;;7.63;100.00
26807;BME280;14380;49.910;6.792;2023-01-09T01:50:13;96906.22;;;7.62;100.00
26807;BME280;14380;49.910;6.792;2023-01-09T01:52:43;96916.56;;;7.76;100.00
26807;BME280;14380;49.910;6.792;2023-01-09T01:55:10;96929.50;;;7.79;100.00
26807;BME280;14380;49.910;6.792;2023-01-09T01:57:42;96923.78;;;7.85;100.00
26807;BME280;14380;49.910;6.792;2023-01-09T02:00:11;96926.63;;;7.82;100.00
26807;BME280;14380;49.910;6.792;2023-01-09T02:02:37;96930.88;;;7.48;100.00
26807;BME280;14380;49.910;6.792;2023-01-09T02:05:05;96928.59;;;7.43;100.00
26807;BME280;14380;49.910;6.792;2023-01-09T02:07:31;96934.38;;;7.35;100.00
26807;BME280;14380;49.910;6.792;2023-01-09T02:09:59;96937.69;;;7.74;100.00
26807;BME280;14380;49.910;6.792;2023-01-09T02:12:26;96940.31;;;7.74;100.00
26807;BME280;14380;49.910;6.792;2023-01-09T02:14:57;96938.63;;;7.73;100.00
26807;BME280;14380;49.910;6.792;2023-01-09T02:17:45;96939.88;;;7.81;100.00
26807;BME280;14380;49.910;6.792;2023-01-09T02:20:35;96948.81;;;7.78;100.00
26807;BME280;14380;49.910;6.792;2023-01-09T02:23:38;96947.97;;;7.78;100.00
26807;BME280;14380;49.910;6.792;2023-01-09T02:26:40;96953.41;;;7.63;100.00
26807;BME280;14380;49.910;6.792;2023-01-09T02:32:44;96965.22;;;7.44;100.00
26807;BME280;14380;49.910;6.792;2023-01-09T02:35:22;96964.34;;;7.57;100.00
26807;BME280;14380;49.910;6.792;2023-01-09T02:38:05;96964.75;;;7.64;100.00
26807;BME280;14380;49.910;6.792;2023-01-09T02:40:37;96975.03;;;7.67;100.00
26807;BME280;14380;49.910;6.792;2023-01-09T02:43:05;96976.84;;;7.53;100.00
26807;BME280;14380;49.910;6.792;2023-01-09T02:45:32;96972.75;;;7.62;100.00
26807;BME280;14380;49.910;6.792;2023-01-09T02:48:00;96972.13;;;7.58;100.00
26807;BME280;14380;49.910;6.792;2023-01-09T02:50:32;96966.34;;;7.53;100.00
26807;BME280;14380;49.910;6.792;2023-01-09T02:56:19;96969.94;;;7.52;100.00
26807;BME280;14380;49.910;6.792;2023-01-09T02:59:03;96987.53;;;7.39;100.00
26807;BME280;14380;49.910;6.792;2023-01-09T03:01:41;96989.34;;;7.25;100.00
26807;BME280;14380;49.910;6.792;2023-01-09T03:04:20;96992.78;;;7.39;100.00
26807;BME280;14380;49.910;6.792;2023-01-09T03:06:54;96998.69;;;7.17;100.00
26807;BME280;14380;49.910;6.792;2023-01-09T03:09:26;97005.13;;;6.99;100.00
26807;BME280;14380;49.910;6.792;2023-01-09T03:11:57;97006.97;;;7.23;100.00
26807;BME280;14380;49.910;6.792;2023-01-09T03:14:25;97037.66;;;7.23;100.00
26807;BME280;14380;49.910;6.792;2023-01-09T03:16:57;97031.97;;;7.16;100.00
26807;BME280;14380;49.910;6.792;2023-01-09T03:19:29;97030.78;;;7.33;100.00
26807;BME280;14380;49.910;6.792;2023-01-09T03:21:57;97040.16;;;7.11;100.00
26807;BME280;14380;49.910;6.792;2023-01-09T03:24:24;97039.31;;;7.37;100.00
26807;BME280;14380;49.910;6.792;2023-01-09T03:26:50;97038.16;;;7.15;100.00
26807;BME280;14380;49.910;6.792;2023-01-09T03:29:18;97035.53;;;7.15;100.00
26807;BME280;14380;49.910;6.792;2023-01-09T03:31:45;97045.31;;;7.26;100.00
26807;BME280;14380;49.910;6.792;2023-01-09T03:34:11;97051.31;;;7.28;100.00
26807;BME280;14380;49.910;6.792;2023-01-09T03:36:39;97061.78;;;7.02;100.00
26807;BME280;14380;49.910;6.792;2023-01-09T03:39:05;97061.38;;;7.08;100.00
26807;BME280;14380;49.910;6.792;2023-01-09T03:41:32;97069.44;;;6.79;100.00
26807;BME280;14380;49.910;6.792;2023-01-09T03:43:58;97062.50;;;6.65;100.00
26807;BME280;14380;49.910;6.792;2023-01-09T03:46:25;97055.06;;;6.98;100.00
26807;BME280;14380;49.910;6.792;2023-01-09T03:48:51;97061.66;;;6.65;100.00
26807;BME280;14380;49.910;6.792;2023-01-09T03:51:18;97061.53;;;6.53;100.00
26807;BME280;14380;49.910;6.792;2023-01-09T03:53:46;97060.81;;;6.64;100.00
26807;BME280;14380;49.910;6.792;2023-01-09T03:56:12;97059.13;;;6.63;100.00
26807;BME280;14380;49.910;6.792;2023-01-09T03:58:39;97066.38;;;6.60;100.00
26807;BME280;14380;49.910;6.792;2023-01-09T04:01:05;97064.06;;;6.55;100.00
26807;BME280;14380;49.910;6.792;2023-01-09T04:03:33;97057.91;;;6.29;100.00
26807;BME280;14380;49.910;6.792;2023-01-09T04:06:00;97060.22;;;6.33;100.00
26807;BME280;14380;49.910;6.792;2023-01-09T04:08:26;97067.09;;;6.49;100.00
26807;BME280;14380;49.910;6.792;2023-01-09T04:10:54;97072.50;;;6.33;100.00
26807;BME280;14380;49.910;6.792;2023-01-09T04:13:21;97076.09;;;6.45;100.00
26807;BME280;14380;49.910;6.792;2023-01-09T04:15:47;97080.41;;;6.46;100.00
26807;BME280;14380;49.910;6.792;2023-01-09T04:18:14;97093.47;;;6.33;100.00
26807;BME280;14380;49.910;6.792;2023-01-09T04:20:41;97088.97;;;6.35;100.00
26807;BME280;14380;49.910;6.792;2023-01-09T04:23:08;97089.28;;;6.43;100.00
26807;BME280;14380;49.910;6.792;2023-01-09T04:25:34;97097.41;;;6.53;100.00
26807;BME280;14380;49.910;6.792;2023-01-09T04:28:02;97100.09;;;6.38;100.00
26807;BME280;14380;49.910;6.792;2023-01-09T04:30:29;97106.63;;;6.46;100.00
26807;BME280;14380;49.910;6.792;2023-01-09T04:32:55;97111.34;;;6.26;100.00
26807;BME280;14380;49.910;6.792;2023-01-09T04:35:22;97103.22;;;6.31;100.00
26807;BME280;14380;49.910;6.792;2023-01-09T04:37:48;97102.81;;;6.37;100.00
26807;BME280;14380;49.910;6.792;2023-01-09T04:40:15;97108.34;;;6.32;100.00
26807;BME280;14380;49.910;6.792;2023-01-09T04:42:44;97105.88;;;6.44;100.00
26807;BME280;14380;49.910;6.792;2023-01-09T04:45:12;97105.28;;;6.53;100.00
26807;BME280;14380;49.910;6.792;2023-01-09T04:47:39;97117.53;;;6.52;100.00
26807;BME280;14380;49.910;6.792;2023-01-09T04:50:07;97115.44;;;6.58;100.00
26807;BME280;14380;49.910;6.792;2023-01-09T04:52:34;97124.03;;;6.47;100.00
26807;BME280;14380;49.910;6.792;2023-01-09T04:55:00;97127.84;;;6.68;100.00
26807;BME280;14380;49.910;6.792;2023-01-09T04:57:27;97140.31;;;6.52;100.00
26807;BME280;14380;49.910;6.792;2023-01-09T04:59:53;97141.72;;;6.43;100.00
26807;BME280;14380;49.910;6.792;2023-01-09T05:02:21;97144.06;;;6.48;100.00
26807;BME280;14380;49.910;6.792;2023-01-09T05:04:47;97143.81;;;6.38;100.00
26807;BME280;14380;49.910;6.792;2023-01-09T05:07:14;97153.03;;;6.58;100.00
26807;BME280;14380;49.910;6.792;2023-01-09T05:09:41;97149.09;;;6.51;100.00
26807;BME280;14380;49.910;6.792;2023-01-09T05:12:08;97156.44;;;6.46;100.00
26807;BME280;14380;49.910;6.792;2023-01-09T05:14:34;97154.81;;;6.70;100.00
26807;BME280;14380;49.910;6.792;2023-01-09T05:17:01;97156.06;;;6.37;100.00
26807;BME280;14380;49.910;6.792;2023-01-09T05:19:29;97151.97;;;6.33;100.00
26807;BME280;14380;49.910;6.792;2023-01-09T05:21:55;97157.06;;;6.49;100.00
26807;BME280;14380;49.910;6.792;2023-01-09T05:24:22;97161.13;;;6.40;100.00
26807;BME280;14380;49.910;6.792;2023-01-09T05:26:48;97165.53;;;6.40;100.00
26807;BME280;14380;49.910;6.792;2023-01-09T05:29:15;97163.13;;;6.37;100.00
26807;BME280;14380;49.910;6.792;2023-01-09T05:31:41;97163.97;;;6.50;100.00
26807;BME280;14380;49.910;6.792;2023-01-09T05:34:08;97172.59;;;6.52;100.00
26807;BME280;14380;49.910;6.792;2023-01-09T05:36:35;97165.38;;;6.56;100.00
26807;BME280;14380;49.910;6.792;2023-01-09T05:39:02;97172.50;;;6.27;100.00
26807;BME280;14380;49.910;6.792;2023-01-09T05:41:29;97172.44;;;6.41;100.00
26807;BME280;14380;49.910;6.792;2023-01-09T05:43:56;97172.16;;;6.46;100.00
26807;BME280;14380;49.910;6.792;2023-01-09T05:46:22;97171.84;;;6.50;100.00
26807;BME280;14380;49.910;6.792;2023-01-09T05:48:49;97170.00;;;6.65;100.00
26807;BME280;14380;49.910;6.792;2023-01-09T05:51:15;97172.44;;;6.68;100.00
26807;BME280;14380;49.910;6.792;2023-01-09T05:53:43;97177.25;;;6.62;100.00
26807;BME280;14380;49.910;6.792;2023-01-09T05:56:10;97176.41;;;6.61;100.00
26807;BME280;14380;49.910;6.792;2023-01-09T05:58:36;97177.63;;;6.83;100.00
26807;BME280;14380;49.910;6.792;2023-01-09T06:01:03;97182.50;;;6.62;100.00
26807;BME280;14380;49.910;6.792;2023-01-09T06:03:29;97190.53;;;6.31;100.00
26807;BME280;14380;49.910;6.792;2023-01-09T06:05:56;97182.44;;;6.49;100.00
26807;BME280;14380;49.910;6.792;2023-01-09T06:08:22;97184.97;;;6.50;100.00
26807;BME280;14380;49.910;6.792;2023-01-09T06:10:50;97179.41;;;6.28;100.00
26807;BME280;14380;49.910;6.792;2023-01-09T06:13:16;97182.44;;;6.76;100.00
26807;BME280;14380;49.910;6.792;2023-01-09T06:15:43;97190.47;;;6.60;100.00
26807;BME280;14380;49.910;6.792;2023-01-09T06:18:09;97193.41;;;6.68;100.00
26807;BME280;14380;49.910;6.792;2023-01-09T06:20:36;97194.06;;;6.72;100.00
26807;BME280;14380;49.910;6.792;2023-01-09T06:23:02;97190.16;;;6.65;100.00
26807;BME280;14380;49.910;6.792;2023-01-09T06:25:29;97193.88;;;6.75;100.00
26807;BME280;14380;49.910;6.792;2023-01-09T06:27:56;97188.66;;;6.33;100.00
26807;BME280;14380;49.910;6.792;2023-01-09T06:30:23;97189.84;;;6.69;100.00
26807;BME280;14380;49.910;6.792;2023-01-09T06:32:49;97192.47;;;6.42;100.00
26807;BME280;14380;49.910;6.792;2023-01-09T06:35:16;97197.31;;;6.76;100.00
26807;BME280;14380;49.910;6.792;2023-01-09T06:37:45;97196.31;;;6.51;100.00
26807;BME280;14380;49.910;6.792;2023-01-09T06:40:12;97210.28;;;6.37;100.00
26807;BME280;14380;49.910;6.792;2023-01-09T06:42:42;97203.47;;;6.62;100.00
26807;BME280;14380;49.910;6.792;2023-01-09T06:45:10;97210.63;;;6.45;100.00
26807;BME280;14380;49.910;6.792;2023-01-09T06:47:36;97215.59;;;6.50;100.00
26807;BME280;14380;49.910;6.792;2023-01-09T06:50:03;97207.63;;;6.51;100.00
26807;BME280;14380;49.910;6.792;2023-01-09T06:52:32;97212.31;;;6.74;100.00
26807;BME280;14380;49.910;6.792;2023-01-09T06:54:58;97221.97;;;6.46;100.00
26807;BME280;14380;49.910;6.792;2023-01-09T06:57:25;97226.97;;;6.63;100.00
26807;BME280;14380;49.910;6.792;2023-01-09T06:59:51;97230.44;;;6.64;100.00
26807;BME280;14380;49.910;6.792;2023-01-09T07:02:20;97232.66;;;6.97;100.00
26807;BME280;14380;49.910;6.792;2023-01-09T07:04:47;97232.09;;;6.79;100.00
26807;BME280;14380;49.910;6.792;2023-01-09T07:07:13;97236.28;;;6.82;100.00
26807;BME280;14380;49.910;6.792;2023-01-09T07:09:40;97237.03;;;6.84;100.00
26807;BME280;14380;49.910;6.792;2023-01-09T07:12:07;97231.19;;;6.93;100.00
26807;BME280;14380;49.910;6.792;2023-01-09T07:14:33;97238.16;;;6.80;100.00
26807;BME280;14380;49.910;6.792;2023-01-09T07:16:59;97233.88;;;6.64;100.00
26807;BME280;14380;49.910;6.792;2023-01-09T07:19:27;97229.59;;;6.91;100.00
26807;BME280;14380;49.910;6.792;2023-01-09T07:21:54;97226.75;;;6.66;100.00
26807;BME280;14380;49.910;6.792;2023-01-09T07:24:20;97229.94;;;6.72;100.00
26807;BME280;14380;49.910;6.792;2023-01-09T07:26:47;97228.25;;;6.70;100.00
26807;BME280;14380;49.910;6.792;2023-01-09T07:29:13;97236.88;;;6.73;100.00
26807;BME280;14380;49.910;6.792;2023-01-09T07:31:40;97233.97;;;6.77;100.00
26807;BME280;14380;49.910;6.792;2023-01-09T07:34:06;97236.97;;;6.71;100.00
26807;BME280;14380;49.910;6.792;2023-01-09T07:36:34;97253.81;;;6.81;100.00
26807;BME280;14380;49.910;6.792;2023-01-09T07:39:00;97250.28;;;6.68;100.00
26807;BME280;14380;49.910;6.792;2023-01-09T07:41:27;97247.81;;;6.79;100.00
26807;BME280;14380;49.910;6.792;2023-01-09T07:43:53;97257.25;;;6.82;100.00
26807;BME280;14380;49.910;6.792;2023-01-09T07:46:20;97258.00;;;6.84;100.00
26807;BME280;14380;49.910;6.792;2023-01-09T07:48:46;97257.81;;;6.87;100.00
26807;BME280;14380;49.910;6.792;2023-01-09T07:51:13;97258.81;;;7.12;100.00
26807;BME280;14380;49.910;6.792;2023-01-09T07:53:41;97258.84;;;6.84;100.00
26807;BME280;14380;49.910;6.792;2023-01-09T07:56:07;97263.06;;;6.87;100.00
26807;BME280;14380;49.910;6.792;2023-01-09T07:58:33;97255.16;;;6.74;100.00
26807;BME280;14380;49.910;6.792;2023-01-09T08:01:00;97262.94;;;6.89;100.00
26807;BME280;14380;49.910;6.792;2023-01-09T08:03:26;97266.44;;;6.89;100.00
26807;BME280;14380;49.910;6.792;2023-01-09T08:05:53;97274.66;;;6.97;100.00
26807;BME280;14380;49.910;6.792;2023-01-09T08:08:19;97266.63;;;6.86;100.00
26807;BME280;14380;49.910;6.792;2023-01-09T08:10:48;97262.06;;;6.75;100.00
26807;BME280;14380;49.910;6.792;2023-01-09T08:13:14;97270.81;;;6.89;100.00
26807;BME280;14380;49.910;6.792;2023-01-09T08:15:41;97267.41;;;6.74;100.00
26807;BME280;14380;49.910;6.792;2023-01-09T08:18:07;97271.72;;;6.75;100.00
26807;BME280;14380;49.910;6.792;2023-01-09T08:20:34;97264.09;;;6.84;100.00
26807;BME280;14380;49.910;6.792;2023-01-09T08:23:00;97275.47;;;6.70;100.00
26807;BME280;14380;49.910;6.792;2023-01-09T08:25:27;97275.53;;;6.83;100.00
26807;BME280;14380;49.910;6.792;2023-01-09T08:27:55;97269.19;;;6.73;100.00
26807;BME280;14380;49.910;6.792;2023-01-09T08:30:21;97271.25;;;6.82;100.00
26807;BME280;14380;49.910;6.792;2023-01-09T08:32:48;97262.47;;;6.69;100.00
26807;BME280;14380;49.910;6.792;2023-01-09T08:35:16;97268.81;;;6.79;100.00
26807;BME280;14380;49.910;6.792;2023-01-09T08:37:43;97274.28;;;6.89;100.00
26807;BME280;14380;49.910;6.792;2023-01-09T08:40:10;97268.25;;;6.74;100.00
26807;BME280;14380;49.910;6.792;2023-01-09T08:42:37;97274.00;;;6.94;100.00
26807;BME280;14380;49.910;6.792;2023-01-09T08:45:22;97263.75;;;6.76;100.00
26807;BME280;14380;49.910;6.792;2023-01-09T08:48:06;97267.56;;;7.12;100.00
26807;BME280;14380;49.910;6.792;2023-01-09T08:50:33;97287.50;;;6.60;100.00
26807;BME280;14380;49.910;6.792;2023-01-09T08:52:59;97288.78;;;6.95;100.00
26807;BME280;14380;49.910;6.792;2023-01-09T08:55:26;97280.09;;;6.94;100.00
26807;BME280;14380;49.910;6.792;2023-01-09T08:57:53;97276.25;;;7.13;100.00
26807;BME280;14380;49.910;6.792;2023-01-09T09:00:23;97285.28;;;6.81;100.00
26807;BME280;14380;49.910;6.792;2023-01-09T09:02:50;97291.81;;;6.89;100.00
26807;BME280;14380;49.910;6.792;2023-01-09T09:05:17;97288.44;;;6.87;100.00
26807;BME280;14380;49.910;6.792;2023-01-09T09:07:46;97289.25;;;7.02;100.00
26807;BME280;14380;49.910;6.792;2023-01-09T09:10:13;97298.25;;;6.97;100.00
26807;BME280;14380;49.910;6.792;2023-01-09T09:12:39;97290.03;;;6.89;100.00
26807;BME280;14380;49.910;6.792;2023-01-09T09:15:07;97280.19;;;6.93;100.00
26807;BME280;14380;49.910;6.792;2023-01-09T09:17:50;97284.78;;;6.89;100.00
26807;BME280;14380;49.910;6.792;2023-01-09T09:20:17;97294.69;;;6.98;100.00
26807;BME280;14380;49.910;6.792;2023-01-09T09:22:44;97297.41;;;6.97;100.00
26807;BME280;14380;49.910;6.792;2023-01-09T09:25:11;97298.88;;;7.28;100.00
26807;BME280;14380;49.910;6.792;2023-01-09T09:27:37;97299.75;;;7.02;100.00
26807;BME280;14380;49.910;6.792;2023-01-09T09:30:05;97308.59;;;7.13;100.00
26807;BME280;14380;49.910;6.792;2023-01-09T09:32:32;97308.66;;;7.26;100.00
26807;BME280;14380;49.910;6.792;2023-01-09T09:35:00;97311.00;;;7.04;100.00
26807;BME280;14380;49.910;6.792;2023-01-09T09:37:26;97310.69;;;7.08;100.00
26807;BME280;14380;49.910;6.792;2023-01-09T09:39:53;97318.72;;;7.20;100.00
26807;BME280;14380;49.910;6.792;2023-01-09T09:43:04;97317.66;;;7.22;100.00
26807;BME280;14380;49.910;6.792;2023-01-09T09:46:01;97318.06;;;7.16;100.00
26807;BME280;14380;49.910;6.792;2023-01-09T09:48:34;97325.19;;;7.14;100.00
26807;BME280;14380;49.910;6.792;2023-01-09T09:51:16;97313.84;;;7.13;100.00
26807;BME280;14380;49.910;6.792;2023-01-09T09:53:49;97324.34;;;7.13;100.00
26807;BME280;14380;49.910;6.792;2023-01-09T09:56:20;97314.13;;;7.36;100.00
26807;BME280;14380;49.910;6.792;2023-01-09T09:58:50;97320.25;;;7.50;100.00
26807;BME280;14380;49.910;6.792;2023-01-09T10:01:22;97312.06;;;7.14;100.00
26807;BME280;14380;49.910;6.792;2023-01-09T10:03:51;97310.97;;;7.31;100.00
26807;BME280;14380;49.910;6.792;2023-01-09T10:06:30;97311.81;;;7.04;100.00
26807;BME280;14380;49.910;6.792;2023-01-09T10:09:01;97317.06;;;7.32;100.00
26807;BME280;14380;49.910;6.792;2023-01-09T10:11:36;97314.00;;;7.25;100.00
26807;BME280;14380;49.910;6.792;2023-01-09T10:14:05;97316.00;;;7.34;100.00
26807;BME280;14380;49.910;6.792;2023-01-09T10:16:44;97315.38;;;7.31;100.00
26807;BME280;14380;49.910;6.792;2023-01-09T10:19:23;97309.97;;;7.19;100.00
26807;BME280;14380;49.910;6.792;2023-01-09T10:22:00;97316.44;;;7.28;100.00
26807;BME280;14380;49.910;6.792;2023-01-09T10:24:42;97304.56;;;7.35;100.00
26807;BME280;14380;49.910;6.792;2023-01-09T10:27:16;97301.84;;;7.37;100.00
26807;BME280;14380;49.910;6.792;2023-01-09T10:29:58;97295.03;;;7.07;100.00
26807;BME280;14380;49.910;6.792;2023-01-09T10:32:43;97309.59;;;7.25;100.00
26807;BME280;14380;49.910;6.792;2023-01-09T10:35:31;97318.03;;;7.43;100.00
26807;BME280;14380;49.910;6.792;2023-01-09T10:38:04;97320.47;;;7.47;100.00
26807;BME280;14380;49.910;6.792;2023-01-09T10:40:35;97317.06;;;7.32;100.00
26807;BME280;14380;49.910;6.792;2023-01-09T10:43:06;97306.94;;;7.12;100.00
26807;BME280;14380;49.910;6.792;2023-01-09T10:45:38;97314.19;;;6.94;100.00
26807;BME280;14380;49.910;6.792;2023-01-09T10:48:15;97318.72;;;7.60;100.00
26807;BME280;14380;49.910;6.792;2023-01-09T10:50:45;97316.28;;;7.57;100.00
26807;BME280;14380;49.910;6.792;2023-01-09T10:53:19;97319.66;;;7.59;100.00
26807;BME280;14380;49.910;6.792;2023-01-09T10:55:47;97318.31;;;7.26;100.00
26807;BME280;14380;49.910;6.792;2023-01-09T10:58:18;97322.47;;;7.43;100.00
26807;BME280;14380;49.910;6.792;2023-01-09T11:00:47;97323.09;;;7.19;100.00
26807;BME280;14380;49.910;6.792;2023-01-09T11:03:16;97319.06;;;7.28;100.00
26807;BME280;14380;49.910;6.792;2023-01-09T11:05:43;97311.81;;;7.32;100.00
26807;BME280;14380;49.910;6.792;2023-01-09T11:08:21;97325.50;;;7.50;100.00
26807;BME280;14380;49.910;6.792;2023-01-09T11:10:50;97323.25;;;7.31;100.00
26807;BME280;14380;49.910;6.792;2023-01-09T11:13:19;97320.41;;;7.21;100.00
26807;BME280;14380;49.910;6.792;2023-01-09T11:16:02;97329.31;;;7.58;100.00
26807;BME280;14380;49.910;6.792;2023-01-09T11:18:30;97337.94;;;7.61;100.00
26807;BME280;14380;49.910;6.792;2023-01-09T11:21:11;97338.09;;;7.44;100.00
26807;BME280;14380;49.910;6.792;2023-01-09T11:23:39;97340.34;;;7.51;100.00
26807;BME280;14380;49.910;6.792;2023-01-09T11:26:21;97352.56;;;7.78;100.00
26807;BME280;14380;49.910;6.792;2023-01-09T11:29:04;97348.22;;;7.64;100.00
26807;BME280;14380;49.910;6.792;2023-01-09T11:31:30;97347.16;;;7.53;100.00
26807;BME280;14380;49.910;6.792;2023-01-09T11:33:57;97349.34;;;7.47;100.00
26807;BME280;14380;49.910;6.792;2023-01-09T11:36:24;97350.53;;;7.55;100.00
26807;BME280;14380;49.910;6.792;2023-01-09T11:38:54;97355.00;;;7.81;100.00
26807;BME280;14380;49.910;6.792;2023-01-09T11:41:23;97350.19;;;7.87;100.00
26807;BME280;14380;49.910;6.792;2023-01-09T11:43:52;97356.34;;;7.73;100.00
26807;BME280;14380;49.910;6.792;2023-01-09T11:46:35;97353.97;;;7.83;100.00
26807;BME280;14380;49.910;6.792;2023-01-09T11:49:04;97355.88;;;7.54;100.00
26807;BME280;14380;49.910;6.792;2023-01-09T11:51:32;97357.81;;;7.65;100.00
26807;BME280;14380;49.910;6.792;2023-01-09T11:54:10;97358.81;;;7.49;100.00
26807;BME280;14380;49.910;6.792;2023-01-09T11:56:38;97367.38;;;7.38;100.00
26807;BME280;14380;49.910;6.792;2023-01-09T11:59:09;97365.53;;;7.53;100.00
26807;BME280;14380;49.910;6.792;2023-01-09T12:01:52;97369.53;;;7.46;100.00
26807;BME280;14380;49.910;6.792;2023-01-09T12:04:25;97357.03;;;7.22;100.00
26807;BME280;14380;49.910;6.792;2023-01-09T12:07:18;97369.41;;;7.20;100.00
26807;BME280;14380;49.910;6.792;2023-01-09T12:09:55;97366.91;;;7.46;100.00
26807;BME280;14380;49.910;6.792;2023-01-09T12:12:24;97357.91;;;7.63;100.00
26807;BME280;14380;49.910;6.792;2023-01-09T12:15:02;97362.97;;;7.66;100.00
26807;BME280;14380;49.910;6.792;2023-01-09T12:18:10;97354.09;;;7.54;100.00
26807;BME280;14380;49.910;6.792;2023-01-09T12:20:54;97355.53;;;7.46;100.00
26807;BME280;14380;49.910;6.792;2023-01-09T12:23:36;97337.13;;;7.99;100.00
26807;BME280;14380;49.910;6.792;2023-01-09T12:26:14;97343.25;;;7.86;100.00
26807;BME280;14380;49.910;6.792;2023-01-09T12:29:12;97333.97;;;7.81;100.00
26807;BME280;14380;49.910;6.792;2023-01-09T12:31:59;97340.72;;;7.98;100.00
26807;BME280;14380;49.910;6.792;2023-01-09T12:34:38;97333.81;;;8.10;100.00
26807;BME280;14380;49.910;6.792;2023-01-09T12:37:21;97342.97;;;7.64;100.00
26807;BME280;14380;49.910;6.792;2023-01-09T12:40:01;97347.88;;;8.22;100.00
26807;BME280;14380;49.910;6.792;2023-01-09T12:42:40;97347.88;;;8.34;100.00
26807;BME280;14380;49.910;6.792;2023-01-09T12:45:31;97349.13;;;8.42;100.00
26807;BME280;14380;49.910;6.792;2023-01-09T12:48:09;97346.94;;;8.36;100.00
26807;BME280;14380;49.910;6.792;2023-01-09T12:51:08;97344.72;;;8.03;100.00
26807;BME280;14380;49.910;6.792;2023-01-09T12:53:41;97357.06;;;7.63;100.00
26807;BME280;14380;49.910;6.792;2023-01-09T12:56:13;97366.34;;;7.68;100.00
26807;BME280;14380;49.910;6.792;2023-01-09T12:58:46;97361.59;;;7.73;100.00
26807;BME280;14380;49.910;6.792;2023-01-09T13:01:18;97366.59;;;8.04;100.00
26807;BME280;14380;49.910;6.792;2023-01-09T13:03:49;97365.63;;;8.05;100.00
26807;BME280;14380;49.910;6.792;2023-01-09T13:06:22;97360.59;;;8.02;100.00
26807;BME280;14380;49.910;6.792;2023-01-09T13:08:51;97365.09;;;7.87;100.00
26807;BME280;14380;49.910;6.792;2023-01-09T13:11:23;97363.75;;;7.94;100.00
26807;BME280;14380;49.910;6.792;2023-01-09T13:13:58;97361.72;;;7.85;100.00
26807;BME280;14380;49.910;6.792;2023-01-09T13:16:29;97356.38;;;7.86;100.00
26807;BME280;14380;49.910;6.792;2023-01-09T13:19:01;97360.09;;;8.23;100.00
26807;BME280;14380;49.910;6.792;2023-01-09T13:21:29;97358.28;;;8.23;100.00
26807;BME280;14380;49.910;6.792;2023-01-09T13:24:00;97358.63;;;8.18;100.00